sensor_id;sensor_type;location;lat;lon;timestamp;P1;durP1;ratioP1;P2;durP2;ratioP2
68455;SDS011;55437;55.046;38.838;2022-12-18T10:31:10;16.42;;;6.38;;
68455;SDS011;55437;55.046;38.838;2022-12-18T10:34:01;16.08;;;7.13;;
68455;SDS011;55437;55.046;38.838;2022-12-18T10:36:27;14.77;;;9.93;;
68455;SDS011;55437;55.046;38.838;2022-12-18T10:38:53;17.23;;;9.05;;
68455;SDS011;55437;55.046;38.838;2022-12-18T10:46:54;19.63;;;9.65;;
68455;SDS011;55437;55.046;38.838;2022-12-18T10:49:31;17.65;;;9.00;;
68455;SDS011;55437;55.046;38.838;2022-12-18T10:54:59;19.38;;;9.00;;
68455;SDS011;55437;55.046;38.838;2022-12-18T10:57:33;15.30;;;8.02;;
68455;SDS011;55437;55.046;38.838;2022-12-18T11:02:47;19.58;;;8.43;;
68455;SDS011;55437;55.046;38.838;2022-12-18T11:05:24;16.52;;;9.20;;
68455;SDS011;55437;55.046;38.838;2022-12-18T11:07:55;17.38;;;9.10;;
68455;SDS011;55437;55.046;38.838;2022-12-18T11:10:30;14.95;;;8.75;;
68455;SDS011;55437;55.046;38.838;2022-12-18T11:13:23;17.58;;;9.25;;
68455;SDS011;55437;55.046;38.838;2022-12-18T11:15:51;18.67;;;6.88;;
68455;SDS011;55437;55.046;38.838;2022-12-18T11:18:18;17.90;;;9.63;;
68455;SDS011;55437;55.046;38.838;2022-12-18T11:20:51;18.88;;;8.35;;
68455;SDS011;55437;55.046;38.838;2022-12-18T11:23:18;20.88;;;9.23;;
68455;SDS011;55437;55.046;38.838;2022-12-18T11:25:53;16.35;;;8.90;;
68455;SDS011;55437;55.046;38.838;2022-12-18T11:31:16;23.42;;;10.27;;
68455;SDS011;55437;55.046;38.838;2022-12-18T11:34:00;17.63;;;8.77;;
68455;SDS011;55437;55.046;38.838;2022-12-18T11:36:36;18.65;;;9.20;;
68455;SDS011;55437;55.046;38.838;2022-12-18T11:39:10;17.73;;;9.95;;
68455;SDS011;55437;55.046;38.838;2022-12-18T11:44:52;18.60;;;9.68;;
68455;SDS011;55437;55.046;38.838;2022-12-18T11:47:49;19.58;;;9.90;;
68455;SDS011;55437;55.046;38.838;2022-12-18T11:50:15;20.35;;;9.63;;
68455;SDS011;55437;55.046;38.838;2022-12-18T11:52:43;23.08;;;11.02;;
68455;SDS011;55437;55.046;38.838;2022-12-18T11:55:12;20.55;;;8.43;;
68455;SDS011;55437;55.046;38.838;2022-12-18T12:00:20;18.38;;;10.27;;
68455;SDS011;55437;55.046;38.838;2022-12-18T12:13:48;19.73;;;10.48;;
68455;SDS011;55437;55.046;38.838;2022-12-18T12:22:08;16.02;;;7.35;;
68455;SDS011;55437;55.046;38.838;2022-12-18T12:30:08;19.90;;;10.27;;
68455;SDS011;55437;55.046;38.838;2022-12-18T12:32:43;19.60;;;9.43;;
68455;SDS011;55437;55.046;38.838;2022-12-18T12:35:35;13.13;;;7.68;;
68455;SDS011;55437;55.046;38.838;2022-12-18T12:38:10;14.57;;;7.88;;
68455;SDS011;55437;55.046;38.838;2022-12-18T12:40:43;17.02;;;7.53;;
68455;SDS011;55437;55.046;38.838;2022-12-18T12:46:07;15.75;;;8.15;;
68455;SDS011;55437;55.046;38.838;2022-12-18T12:48:40;19.98;;;9.82;;
68455;SDS011;55437;55.046;38.838;2022-12-18T12:51:26;17.17;;;9.05;;
68455;SDS011;55437;55.046;38.838;2022-12-18T12:54:05;18.17;;;8.68;;
68455;SDS011;55437;55.046;38.838;2022-12-18T13:05:06;18.83;;;9.48;;
68455;SDS011;55437;55.046;38.838;2022-12-18T13:07:39;14.90;;;6.32;;
68455;SDS011;55437;55.046;38.838;2022-12-18T13:16:04;18.45;;;7.45;;
68455;SDS011;55437;55.046;38.838;2022-12-18T13:18:32;13.63;;;7.20;;
68455;SDS011;55437;55.046;38.838;2022-12-18T13:25:50;13.60;;;6.47;;
68455;SDS011;55437;55.046;38.838;2022-12-18T13:28:21;16.70;;;8.18;;
68455;SDS011;55437;55.046;38.838;2022-12-18T13:30:56;14.63;;;7.35;;
68455;SDS011;55437;55.046;38.838;2022-12-18T13:35:53;12.77;;;6.78;;
68455;SDS011;55437;55.046;38.838;2022-12-18T13:41:23;17.77;;;8.27;;
68455;SDS011;55437;55.046;38.838;2022-12-18T13:43:50;15.20;;;7.18;;
68455;SDS011;55437;55.046;38.838;2022-12-18T13:48:53;13.27;;;7.10;;
68455;SDS011;55437;55.046;38.838;2022-12-18T13:51:23;14.57;;;6.85;;
68455;SDS011;55437;55.046;38.838;2022-12-18T13:53:51;15.60;;;8.98;;
68455;SDS011;55437;55.046;38.838;2022-12-18T13:56:27;13.15;;;8.85;;
68455;SDS011;55437;55.046;38.838;2022-12-18T14:01:56;13.60;;;6.55;;
68455;SDS011;55437;55.046;38.838;2022-12-18T14:04:25;15.13;;;6.82;;
68455;SDS011;55437;55.046;38.838;2022-12-18T14:06:53;15.43;;;8.32;;
68455;SDS011;55437;55.046;38.838;2022-12-18T14:09:27;15.48;;;7.45;;
68455;SDS011;55437;55.046;38.838;2022-12-18T14:11:55;13.05;;;7.45;;
68455;SDS011;55437;55.046;38.838;2022-12-18T14:14:46;14.43;;;7.13;;
68455;SDS011;55437;55.046;38.838;2022-12-18T14:17:16;14.10;;;5.97;;
68455;SDS011;55437;55.046;38.838;2022-12-18T14:19:43;14.10;;;6.20;;
68455;SDS011;55437;55.046;38.838;2022-12-18T14:22:18;14.85;;;6.22;;
68455;SDS011;55437;55.046;38.838;2022-12-18T14:27:46;16.25;;;11.05;;
68455;SDS011;55437;55.046;38.838;2022-12-18T14:30:26;12.05;;;5.40;;
68455;SDS011;55437;55.046;38.838;2022-12-18T14:35:26;17.60;;;7.85;;
68455;SDS011;55437;55.046;38.838;2022-12-18T14:37:52;15.43;;;7.13;;
68455;SDS011;55437;55.046;38.838;2022-12-18T14:40:18;17.85;;;7.80;;
68455;SDS011;55437;55.046;38.838;2022-12-18T14:42:44;14.02;;;7.53;;
68455;SDS011;55437;55.046;38.838;2022-12-18T14:48:07;14.85;;;7.72;;
68455;SDS011;55437;55.046;38.838;2022-12-18T14:50:39;14.02;;;6.50;;
68455;SDS011;55437;55.046;38.838;2022-12-18T14:53:04;16.17;;;7.50;;
68455;SDS011;55437;55.046;38.838;2022-12-18T14:55:35;12.48;;;5.93;;
68455;SDS011;55437;55.046;38.838;2022-12-18T14:58:01;13.60;;;7.05;;
68455;SDS011;55437;55.046;38.838;2022-12-18T15:00:27;15.02;;;7.32;;
68455;SDS011;55437;55.046;38.838;2022-12-18T15:02:54;13.27;;;6.28;;
68455;SDS011;55437;55.046;38.838;2022-12-18T15:05:25;11.60;;;4.85;;
68455;SDS011;55437;55.046;38.838;2022-12-18T15:07:56;12.07;;;6.75;;
68455;SDS011;55437;55.046;38.838;2022-12-18T15:10:29;11.10;;;7.15;;
68455;SDS011;55437;55.046;38.838;2022-12-18T15:20:40;12.65;;;6.75;;
68455;SDS011;55437;55.046;38.838;2022-12-18T15:23:14;12.75;;;6.68;;
68455;SDS011;55437;55.046;38.838;2022-12-18T15:25:48;14.70;;;6.50;;
68455;SDS011;55437;55.046;38.838;2022-12-18T15:28:24;12.52;;;6.20;;
68455;SDS011;55437;55.046;38.838;2022-12-18T15:33:40;12.07;;;6.15;;
68455;SDS011;55437;55.046;38.838;2022-12-18T15:36:15;12.10;;;6.35;;
68455;SDS011;55437;55.046;38.838;2022-12-18T15:38:45;11.85;;;7.22;;
68455;SDS011;55437;55.046;38.838;2022-12-18T15:41:16;13.80;;;4.65;;
68455;SDS011;55437;55.046;38.838;2022-12-18T15:43:46;16.23;;;6.70;;
68455;SDS011;55437;55.046;38.838;2022-12-18T15:46:14;13.52;;;7.32;;
68455;SDS011;55437;55.046;38.838;2022-12-18T15:48:42;13.98;;;7.28;;
68455;SDS011;55437;55.046;38.838;2022-12-18T15:53:44;15.40;;;5.35;;
68455;SDS011;55437;55.046;38.838;2022-12-18T15:56:10;11.88;;;6.32;;
68455;SDS011;55437;55.046;38.838;2022-12-18T15:58:56;14.23;;;6.15;;
68455;SDS011;55437;55.046;38.838;2022-12-18T16:01:30;12.65;;;6.95;;
68455;SDS011;55437;55.046;38.838;2022-12-18T16:03:56;9.35;;;5.97;;
68455;SDS011;55437;55.046;38.838;2022-12-18T16:06:22;13.15;;;6.90;;
68455;SDS011;55437;55.046;38.838;2022-12-18T16:08:49;13.80;;;7.15;;
68455;SDS011;55437;55.046;38.838;2022-12-18T16:11:24;10.13;;;4.25;;
68455;SDS011;55437;55.046;38.838;2022-12-18T16:17:02;14.73;;;7.20;;
68455;SDS011;55437;55.046;38.838;2022-12-18T16:19:30;13.13;;;8.10;;
68455;SDS011;55437;55.046;38.838;2022-12-18T16:21:57;17.80;;;7.07;;
68455;SDS011;55437;55.046;38.838;2022-12-18T16:24:24;15.98;;;6.30;;
68455;SDS011;55437;55.046;38.838;2022-12-18T16:26:52;10.80;;;6.15;;
68455;SDS011;55437;55.046;38.838;2022-12-18T16:29:19;11.38;;;5.68;;
68455;SDS011;55437;55.046;38.838;2022-12-18T16:31:52;10.88;;;4.85;;
68455;SDS011;55437;55.046;38.838;2022-12-18T16:36:49;9.32;;;4.28;;
68455;SDS011;55437;55.046;38.838;2022-12-18T16:39:15;10.88;;;4.63;;
68455;SDS011;55437;55.046;38.838;2022-12-18T16:41:42;15.20;;;6.57;;
68455;SDS011;55437;55.046;38.838;2022-12-18T16:44:08;13.98;;;8.27;;
68455;SDS011;55437;55.046;38.838;2022-12-18T16:46:33;12.45;;;5.70;;
68455;SDS011;55437;55.046;38.838;2022-12-18T16:48:59;18.20;;;10.18;;
68455;SDS011;55437;55.046;38.838;2022-12-18T16:51:27;13.98;;;7.90;;
68455;SDS011;55437;55.046;38.838;2022-12-18T16:53:53;12.40;;;6.00;;
68455;SDS011;55437;55.046;38.838;2022-12-18T16:56:20;11.05;;;6.25;;
68455;SDS011;55437;55.046;38.838;2022-12-18T16:58:56;11.93;;;6.15;;
68455;SDS011;55437;55.046;38.838;2022-12-18T17:01:24;11.85;;;4.93;;
68455;SDS011;55437;55.046;38.838;2022-12-18T17:03:51;12.07;;;5.95;;
68455;SDS011;55437;55.046;38.838;2022-12-18T17:06:18;10.88;;;7.28;;
68455;SDS011;55437;55.046;38.838;2022-12-18T17:08:44;11.35;;;5.78;;
68455;SDS011;55437;55.046;38.838;2022-12-18T17:11:10;11.02;;;4.90;;
68455;SDS011;55437;55.046;38.838;2022-12-18T17:13:36;11.45;;;6.43;;
68455;SDS011;55437;55.046;38.838;2022-12-18T17:16:05;14.50;;;5.60;;
68455;SDS011;55437;55.046;38.838;2022-12-18T17:18:32;12.02;;;5.90;;
68455;SDS011;55437;55.046;38.838;2022-12-18T17:20:59;11.75;;;6.45;;
68455;SDS011;55437;55.046;38.838;2022-12-18T17:23:29;13.52;;;6.85;;
68455;SDS011;55437;55.046;38.838;2022-12-18T17:25:56;15.40;;;7.20;;
68455;SDS011;55437;55.046;38.838;2022-12-18T17:28:23;15.43;;;6.75;;
68455;SDS011;55437;55.046;38.838;2022-12-18T17:30:50;16.25;;;5.90;;
68455;SDS011;55437;55.046;38.838;2022-12-18T17:33:20;19.17;;;8.32;;
68455;SDS011;55437;55.046;38.838;2022-12-18T17:35:47;21.13;;;9.20;;
68455;SDS011;55437;55.046;38.838;2022-12-18T17:38:13;24.95;;;9.90;;
68455;SDS011;55437;55.046;38.838;2022-12-18T17:40:39;18.88;;;8.15;;
68455;SDS011;55437;55.046;38.838;2022-12-18T17:43:09;20.77;;;8.25;;
68455;SDS011;55437;55.046;38.838;2022-12-18T17:45:36;24.85;;;9.45;;
68455;SDS011;55437;55.046;38.838;2022-12-18T17:48:03;20.98;;;10.40;;
68455;SDS011;55437;55.046;38.838;2022-12-18T17:50:29;24.50;;;10.63;;
68455;SDS011;55437;55.046;38.838;2022-12-18T17:52:57;22.52;;;9.93;;
68455;SDS011;55437;55.046;38.838;2022-12-18T17:55:23;24.52;;;10.38;;
68455;SDS011;55437;55.046;38.838;2022-12-18T17:57:48;20.63;;;9.07;;
68455;SDS011;55437;55.046;38.838;2022-12-18T18:00:14;23.33;;;11.23;;
68455;SDS011;55437;55.046;38.838;2022-12-18T18:02:40;24.45;;;9.48;;
68455;SDS011;55437;55.046;38.838;2022-12-18T18:05:07;21.30;;;11.57;;
68455;SDS011;55437;55.046;38.838;2022-12-18T18:07:33;17.42;;;8.43;;
68455;SDS011;55437;55.046;38.838;2022-12-18T18:09:59;23.20;;;10.57;;
68455;SDS011;55437;55.046;38.838;2022-12-18T18:12:25;19.33;;;9.32;;
68455;SDS011;55437;55.046;38.838;2022-12-18T18:15:09;16.85;;;7.30;;
68455;SDS011;55437;55.046;38.838;2022-12-18T18:17:35;17.98;;;8.07;;
68455;SDS011;55437;55.046;38.838;2022-12-18T18:20:00;18.13;;;8.20;;
68455;SDS011;55437;55.046;38.838;2022-12-18T18:22:26;22.92;;;8.05;;
68455;SDS011;55437;55.046;38.838;2022-12-18T18:24:52;18.48;;;7.05;;
68455;SDS011;55437;55.046;38.838;2022-12-18T18:27:17;19.02;;;8.57;;
68455;SDS011;55437;55.046;38.838;2022-12-18T18:29:43;21.23;;;9.63;;
68455;SDS011;55437;55.046;38.838;2022-12-18T18:32:08;17.90;;;8.27;;
68455;SDS011;55437;55.046;38.838;2022-12-18T18:34:34;17.65;;;6.43;;
68455;SDS011;55437;55.046;38.838;2022-12-18T18:37:00;12.52;;;5.22;;
68455;SDS011;55437;55.046;38.838;2022-12-18T18:39:26;18.42;;;7.88;;
68455;SDS011;55437;55.046;38.838;2022-12-18T18:41:52;15.35;;;7.70;;
68455;SDS011;55437;55.046;38.838;2022-12-18T18:44:18;17.13;;;7.43;;
68455;SDS011;55437;55.046;38.838;2022-12-18T18:46:45;16.67;;;7.15;;
68455;SDS011;55437;55.046;38.838;2022-12-18T18:49:12;12.88;;;7.25;;
68455;SDS011;55437;55.046;38.838;2022-12-18T18:51:38;11.52;;;6.57;;
68455;SDS011;55437;55.046;38.838;2022-12-18T18:54:05;13.95;;;7.93;;
68455;SDS011;55437;55.046;38.838;2022-12-18T18:56:31;17.35;;;7.03;;
68455;SDS011;55437;55.046;38.838;2022-12-18T18:58:57;13.90;;;6.95;;
68455;SDS011;55437;55.046;38.838;2022-12-18T19:01:23;16.25;;;7.32;;
68455;SDS011;55437;55.046;38.838;2022-12-18T19:03:50;15.48;;;6.13;;
68455;SDS011;55437;55.046;38.838;2022-12-18T19:06:18;14.73;;;7.30;;
68455;SDS011;55437;55.046;38.838;2022-12-18T19:08:47;13.73;;;6.63;;
68455;SDS011;55437;55.046;38.838;2022-12-18T19:11:14;13.93;;;6.15;;
68455;SDS011;55437;55.046;38.838;2022-12-18T19:13:58;14.50;;;6.90;;
68455;SDS011;55437;55.046;38.838;2022-12-18T19:16:25;13.98;;;6.50;;
68455;SDS011;55437;55.046;38.838;2022-12-18T19:18:52;14.82;;;7.50;;
68455;SDS011;55437;55.046;38.838;2022-12-18T19:21:19;14.73;;;7.88;;
68455;SDS011;55437;55.046;38.838;2022-12-18T19:23:45;13.30;;;6.53;;
68455;SDS011;55437;55.046;38.838;2022-12-18T19:26:11;12.85;;;7.30;;
68455;SDS011;55437;55.046;38.838;2022-12-18T19:28:37;13.85;;;8.27;;
68455;SDS011;55437;55.046;38.838;2022-12-18T19:31:05;11.57;;;6.45;;
68455;SDS011;55437;55.046;38.838;2022-12-18T19:33:34;12.93;;;6.40;;
68455;SDS011;55437;55.046;38.838;2022-12-18T19:36:09;13.23;;;5.32;;
68455;SDS011;55437;55.046;38.838;2022-12-18T19:38:40;14.15;;;7.03;;
68455;SDS011;55437;55.046;38.838;2022-12-18T19:41:06;13.80;;;7.95;;
68455;SDS011;55437;55.046;38.838;2022-12-18T19:43:33;14.93;;;9.20;;
68455;SDS011;55437;55.046;38.838;2022-12-18T19:46:01;12.13;;;8.48;;
68455;SDS011;55437;55.046;38.838;2022-12-18T19:48:29;15.50;;;8.60;;
68455;SDS011;55437;55.046;38.838;2022-12-18T19:50:54;13.32;;;6.97;;
68455;SDS011;55437;55.046;38.838;2022-12-18T19:53:20;14.65;;;7.47;;
68455;SDS011;55437;55.046;38.838;2022-12-18T19:55:46;14.07;;;7.25;;
68455;SDS011;55437;55.046;38.838;2022-12-18T19:58:12;13.20;;;7.47;;
68455;SDS011;55437;55.046;38.838;2022-12-18T20:00:38;15.52;;;9.32;;
68455;SDS011;55437;55.046;38.838;2022-12-18T20:03:03;12.85;;;7.63;;
68455;SDS011;55437;55.046;38.838;2022-12-18T20:05:29;13.55;;;7.18;;
68455;SDS011;55437;55.046;38.838;2022-12-18T20:07:55;12.63;;;6.93;;
68455;SDS011;55437;55.046;38.838;2022-12-18T20:10:21;14.13;;;5.60;;
68455;SDS011;55437;55.046;38.838;2022-12-18T20:12:47;12.57;;;7.10;;
68455;SDS011;55437;55.046;38.838;2022-12-18T20:15:13;15.80;;;7.93;;
68455;SDS011;55437;55.046;38.838;2022-12-18T20:17:38;13.43;;;7.35;;
68455;SDS011;55437;55.046;38.838;2022-12-18T20:20:04;16.77;;;8.85;;
68455;SDS011;55437;55.046;38.838;2022-12-18T20:22:30;16.00;;;8.18;;
68455;SDS011;55437;55.046;38.838;2022-12-18T20:24:56;17.42;;;8.73;;
68455;SDS011;55437;55.046;38.838;2022-12-18T20:27:22;14.80;;;7.88;;
68455;SDS011;55437;55.046;38.838;2022-12-18T20:29:48;16.35;;;8.60;;
68455;SDS011;55437;55.046;38.838;2022-12-18T20:32:14;14.95;;;7.55;;
68455;SDS011;55437;55.046;38.838;2022-12-18T20:34:40;15.07;;;6.38;;
68455;SDS011;55437;55.046;38.838;2022-12-18T20:37:05;17.92;;;9.10;;
68455;SDS011;55437;55.046;38.838;2022-12-18T20:39:31;16.45;;;8.45;;
68455;SDS011;55437;55.046;38.838;2022-12-18T20:41:57;15.35;;;8.55;;
68455;SDS011;55437;55.046;38.838;2022-12-18T20:44:23;17.15;;;8.75;;
68455;SDS011;55437;55.046;38.838;2022-12-18T20:46:53;14.80;;;7.85;;
68455;SDS011;55437;55.046;38.838;2022-12-18T20:49:21;18.23;;;9.57;;
68455;SDS011;55437;55.046;38.838;2022-12-18T20:51:54;20.83;;;8.70;;
68455;SDS011;55437;55.046;38.838;2022-12-18T20:54:22;19.90;;;11.35;;
68455;SDS011;55437;55.046;38.838;2022-12-18T20:56:49;17.52;;;9.20;;
68455;SDS011;55437;55.046;38.838;2022-12-18T20:59:15;18.70;;;9.45;;
68455;SDS011;55437;55.046;38.838;2022-12-18T21:01:41;17.40;;;8.57;;
68455;SDS011;55437;55.046;38.838;2022-12-18T21:04:07;18.92;;;9.50;;
68455;SDS011;55437;55.046;38.838;2022-12-18T21:06:34;17.50;;;7.07;;
68455;SDS011;55437;55.046;38.838;2022-12-18T21:09:01;14.77;;;5.88;;
68455;SDS011;55437;55.046;38.838;2022-12-18T21:11:27;18.77;;;8.82;;
68455;SDS011;55437;55.046;38.838;2022-12-18T21:14:14;19.98;;;8.90;;
68455;SDS011;55437;55.046;38.838;2022-12-18T21:16:45;16.55;;;8.40;;
68455;SDS011;55437;55.046;38.838;2022-12-18T21:19:12;16.23;;;7.13;;
68455;SDS011;55437;55.046;38.838;2022-12-18T21:21:39;15.77;;;9.10;;
68455;SDS011;55437;55.046;38.838;2022-12-18T21:24:05;16.30;;;7.32;;
68455;SDS011;55437;55.046;38.838;2022-12-18T21:26:32;16.60;;;8.52;;
68455;SDS011;55437;55.046;38.838;2022-12-18T21:28:58;16.25;;;7.75;;
68455;SDS011;55437;55.046;38.838;2022-12-18T21:31:27;19.45;;;8.20;;
68455;SDS011;55437;55.046;38.838;2022-12-18T21:33:55;19.73;;;9.70;;
68455;SDS011;55437;55.046;38.838;2022-12-18T21:36:21;17.23;;;9.40;;
68455;SDS011;55437;55.046;38.838;2022-12-18T21:38:47;19.10;;;8.70;;
68455;SDS011;55437;55.046;38.838;2022-12-18T21:41:12;16.75;;;8.18;;
68455;SDS011;55437;55.046;38.838;2022-12-18T21:43:56;17.90;;;8.40;;
68455;SDS011;55437;55.046;38.838;2022-12-18T21:46:32;14.77;;;8.73;;
68455;SDS011;55437;55.046;38.838;2022-12-18T21:49:01;23.13;;;8.95;;
68455;SDS011;55437;55.046;38.838;2022-12-18T21:51:28;18.70;;;8.88;;
68455;SDS011;55437;55.046;38.838;2022-12-18T21:53:54;16.65;;;8.90;;
68455;SDS011;55437;55.046;38.838;2022-12-18T21:56:20;14.63;;;8.63;;
68455;SDS011;55437;55.046;38.838;2022-12-18T21:58:48;17.60;;;7.45;;
68455;SDS011;55437;55.046;38.838;2022-12-18T22:01:15;19.70;;;8.95;;
68455;SDS011;55437;55.046;38.838;2022-12-18T22:03:41;20.08;;;9.52;;
68455;SDS011;55437;55.046;38.838;2022-12-18T22:06:07;18.85;;;12.30;;
68455;SDS011;55437;55.046;38.838;2022-12-18T22:08:33;17.58;;;9.80;;
68455;SDS011;55437;55.046;38.838;2022-12-18T22:10:58;14.90;;;7.00;;
68455;SDS011;55437;55.046;38.838;2022-12-18T22:13:24;15.77;;;7.63;;
68455;SDS011;55437;55.046;38.838;2022-12-18T22:15:50;16.10;;;8.68;;
68455;SDS011;55437;55.046;38.838;2022-12-18T22:18:15;18.88;;;8.98;;
68455;SDS011;55437;55.046;38.838;2022-12-18T22:20:41;20.83;;;9.25;;
68455;SDS011;55437;55.046;38.838;2022-12-18T22:23:07;18.42;;;7.85;;
68455;SDS011;55437;55.046;38.838;2022-12-18T22:25:33;17.10;;;6.78;;
68455;SDS011;55437;55.046;38.838;2022-12-18T22:27:59;20.08;;;9.45;;
68455;SDS011;55437;55.046;38.838;2022-12-18T22:30:43;16.08;;;9.52;;
68455;SDS011;55437;55.046;38.838;2022-12-18T22:33:09;13.77;;;5.97;;
68455;SDS011;55437;55.046;38.838;2022-12-18T22:35:35;18.58;;;8.60;;
68455;SDS011;55437;55.046;38.838;2022-12-18T22:38:00;16.83;;;8.05;;
68455;SDS011;55437;55.046;38.838;2022-12-18T22:40:26;16.65;;;8.45;;
68455;SDS011;55437;55.046;38.838;2022-12-18T22:42:53;13.93;;;7.63;;
68455;SDS011;55437;55.046;38.838;2022-12-18T22:45:19;16.05;;;8.32;;
68455;SDS011;55437;55.046;38.838;2022-12-18T22:47:47;19.25;;;9.77;;
68455;SDS011;55437;55.046;38.838;2022-12-18T22:50:13;21.67;;;10.82;;
68455;SDS011;55437;55.046;38.838;2022-12-18T22:52:39;18.90;;;9.55;;
68455;SDS011;55437;55.046;38.838;2022-12-18T22:55:05;18.65;;;9.95;;
68455;SDS011;55437;55.046;38.838;2022-12-18T22:57:31;18.25;;;9.43;;
68455;SDS011;55437;55.046;38.838;2022-12-18T22:59:57;17.63;;;8.80;;
68455;SDS011;55437;55.046;38.838;2022-12-18T23:02:23;18.88;;;9.43;;
68455;SDS011;55437;55.046;38.838;2022-12-18T23:04:49;17.58;;;9.95;;
68455;SDS011;55437;55.046;38.838;2022-12-18T23:07:15;18.48;;;9.13;;
68455;SDS011;55437;55.046;38.838;2022-12-18T23:09:41;14.45;;;9.02;;
68455;SDS011;55437;55.046;38.838;2022-12-18T23:12:09;18.33;;;9.05;;
68455;SDS011;55437;55.046;38.838;2022-12-18T23:14:39;23.20;;;12.60;;
68455;SDS011;55437;55.046;38.838;2022-12-18T23:17:04;22.25;;;8.73;;
68455;SDS011;55437;55.046;38.838;2022-12-18T23:19:30;18.98;;;10.02;;
68455;SDS011;55437;55.046;38.838;2022-12-18T23:21:56;21.65;;;9.55;;
68455;SDS011;55437;55.046;38.838;2022-12-18T23:24:23;22.88;;;10.40;;
68455;SDS011;55437;55.046;38.838;2022-12-18T23:26:49;19.77;;;10.20;;
68455;SDS011;55437;55.046;38.838;2022-12-18T23:29:15;19.75;;;10.88;;
68455;SDS011;55437;55.046;38.838;2022-12-18T23:31:40;15.88;;;8.18;;
68455;SDS011;55437;55.046;38.838;2022-12-18T23:34:06;19.08;;;9.93;;
68455;SDS011;55437;55.046;38.838;2022-12-18T23:36:33;19.65;;;8.85;;
68455;SDS011;55437;55.046;38.838;2022-12-18T23:39:00;20.70;;;10.13;;
68455;SDS011;55437;55.046;38.838;2022-12-18T23:41:27;20.45;;;9.18;;
68455;SDS011;55437;55.046;38.838;2022-12-18T23:43:54;20.67;;;9.27;;
68455;SDS011;55437;55.046;38.838;2022-12-18T23:48:47;20.83;;;10.45;;
68455;SDS011;55437;55.046;38.838;2022-12-18T23:51:14;23.17;;;11.25;;
68455;SDS011;55437;55.046;38.838;2022-12-18T23:53:41;20.02;;;10.52;;
68455;SDS011;55437;55.046;38.838;2022-12-18T23:56:08;20.65;;;9.63;;
68455;SDS011;55437;55.046;38.838;2022-12-18T23:58:34;26.38;;;9.88;;
